Time;durP1;ratioP1;P1;durP2;ratioP2;P2;SDS_P1;SDS_P2;PMS_P1;PMS_P2;Temp;Humidity;BMP_temperature;BMP_pressure;BME280_temperature;BME280_humidity;BME280_pressure;Samples;Min_cycle;Max_cycle;Signal;HPM_P1;HPM_P2
2023/11/23 00:00:08;;;;;;;30.13;27.83;;;;;;;4.51;100.00;101934.44;4981029;28;20046;-83
2023/11/23 00:02:35;;;;;;;29.70;27.50;;;;;;;4.51;100.00;101932.66;4968711;28;20047;-83
2023/11/23 00:05:02;;;;;;;30.83;28.60;;;;;;;4.51;100.00;101918.66;4973384;28;20635;-83
2023/11/23 00:07:31;;;;;;;29.65;27.45;;;;;;;4.33;100.00;101934.28;4974169;28;20048;-83
2023/11/23 00:10:05;;;;;;;33.55;31.10;;;;;;;4.33;100.00;101929.03;4973107;28;20488;-84
2023/11/23 00:12:45;;;;;;;33.88;31.30;;;;;;;4.72;100.00;101924.63;4974273;28;20129;-83
2023/11/23 00:15:27;;;;;;;29.38;27.02;;;;;;;4.29;100.00;101917.91;4974556;28;20046;-85
2023/11/23 00:17:54;;;;;;;29.60;27.40;;;;;;;4.32;100.00;101933.41;4974770;28;20039;-84
2023/11/23 00:20:21;;;;;;;37.05;34.33;;;;;;;4.42;100.00;101938.72;4982856;28;20500;-84
2023/11/23 00:22:49;;;;;;;32.00;29.50;;;;;;;4.28;100.00;101933.84;4975165;28;20046;-84
2023/11/23 00:25:16;;;;;;;30.55;28.27;;;;;;;4.60;100.00;101936.25;4975607;28;20050;-84
2023/11/23 00:27:46;;;;;;;32.08;29.77;;;;;;;4.36;100.00;101932.22;4974051;28;20069;-84
2023/11/23 00:30:22;;;;;;;33.03;30.67;;;;;;;4.25;100.00;101937.56;4974108;28;20043;-85
2023/11/23 00:32:48;;;;;;;32.53;30.02;;;;;;;4.41;100.00;101942.31;4974207;28;20053;-84
2023/11/23 00:35:16;;;;;;;33.75;31.10;;;;;;;4.38;100.00;101939.94;4974850;28;20047;-83
2023/11/23 00:37:44;;;;;;;34.58;31.98;;;;;;;4.38;100.00;101945.22;4974981;28;20081;-86
2023/11/23 00:40:13;;;;;;;35.50;32.95;;;;;;;4.31;100.00;101934.41;4972860;28;20544;-85
2023/11/23 00:42:43;;;;;;;32.60;30.10;;;;;;;4.34;100.00;101939.38;4963995;28;20102;-78
2023/11/23 00:45:14;;;;;;;36.67;33.92;;;;;;;4.43;100.00;101927.22;4967984;28;20129;-78
2023/11/23 00:47:41;;;;;;;33.13;30.70;;;;;;;4.30;100.00;101922.22;4969705;28;20512;-77
2023/11/23 00:50:14;;;;;;;36.42;33.53;;;;;;;4.29;100.00;101903.94;4972463;28;20047;-77
2023/11/23 00:52:41;;;;;;;33.40;30.77;;;;;;;4.25;100.00;101919.16;4972658;28;20055;-77
2023/11/23 00:55:10;;;;;;;34.78;32.17;;;;;;;4.30;100.00;101934.56;4967317;28;20046;-78
2023/11/23 00:57:41;;;;;;;32.88;30.58;;;;;;;4.30;100.00;101940.63;4969925;28;20051;-77
2023/11/23 01:00:09;;;;;;;35.63;33.13;;;;;;;4.30;100.00;101948.53;4973005;28;20101;-78
2023/11/23 01:02:37;;;;;;;32.67;30.38;;;;;;;4.27;100.00;101953.22;4974496;28;20057;-78
2023/11/23 01:05:46;;;;;;;37.83;35.15;;;;;;;4.27;100.00;101943.53;4974516;28;20053;-78
2023/11/23 01:08:14;;;;;;;35.47;33.00;;;;;;;4.43;100.00;101942.19;4959364;28;20077;-83
2023/11/23 01:10:41;;;;;;;30.35;28.17;;;;;;;4.27;100.00;101942.72;4963332;28;20051;-84
2023/11/23 01:13:10;;;;;;;32.83;30.15;;;;;;;4.38;100.00;101953.09;4974047;28;20435;-84
2023/11/23 01:15:52;;;;;;;29.70;27.50;;;;;;;4.33;100.00;101964.03;4976009;28;20125;-86
2023/11/23 01:18:26;;;;;;;33.53;31.13;;;;;;;4.19;100.00;101955.69;4974114;28;20406;-84
2023/11/23 01:20:53;;;;;;;32.05;29.60;;;;;;;4.12;100.00;101948.34;4972659;28;20047;-85
2023/11/23 01:23:32;;;;;;;35.10;32.30;;;;;;;3.99;100.00;101939.00;4979011;28;20051;-85
2023/11/23 01:26:08;;;;;;;30.25;28.15;;;;;;;3.95;100.00;101942.88;4969122;28;20058;-86
2023/11/23 01:28:37;;;;;;;39.63;37.13;;;;;;;4.19;100.00;101953.88;4980413;28;20058;-85
2023/11/23 01:31:04;;;;;;;29.95;27.85;;;;;;;4.11;100.00;101945.81;4970453;28;20047;-84
2023/11/23 01:33:31;;;;;;;31.00;28.75;;;;;;;4.10;100.00;101952.06;4973264;28;20042;-85
2023/11/23 01:35:58;;;;;;;33.10;30.85;;;;;;;4.39;100.00;101943.41;4973287;28;20138;-85
2023/11/23 01:38:26;;;;;;;32.25;29.60;;;;;;;4.06;100.00;101948.88;4973840;28;20046;-85
2023/11/23 01:40:54;;;;;;;32.03;29.73;;;;;;;4.08;100.00;101946.91;4973548;28;20045;-85
2023/11/23 01:43:24;;;;;;;29.85;27.55;;;;;;;3.97;100.00;101951.47;4973937;28;20096;-85
2023/11/23 01:45:54;;;;;;;35.53;33.13;;;;;;;3.91;100.00;101971.22;4975502;28;20047;-85
2023/11/23 01:48:22;;;;;;;31.17;28.77;;;;;;;4.02;100.00;101960.59;4964814;28;20050;-85
2023/11/23 01:50:58;;;;;;;27.00;25.00;;;;;;;4.06;100.00;101974.34;4976024;28;20133;-85
2023/11/23 01:53:25;;;;;;;34.28;31.67;;;;;;;3.75;100.00;101963.84;4969166;28;20469;-86
2023/11/23 01:55:53;;;;;;;130.82;123.40;;;;;;;4.10;100.00;101967.84;4973369;28;20055;-85
2023/11/23 01:58:21;;;;;;;98.80;93.20;;;;;;;3.91;100.00;101981.75;4966113;28;20054;-86
2023/11/23 02:01:05;;;;;;;83.45;78.13;;;;;;;3.97;100.00;101985.66;4969063;28;20105;-85
2023/11/23 02:03:33;;;;;;;82.53;77.82;;;;;;;3.93;100.00;101992.09;4969555;28;20055;-85
2023/11/23 02:06:00;;;;;;;72.88;68.30;;;;;;;4.01;100.00;101994.94;4969646;28;20109;-85
2023/11/23 02:08:34;;;;;;;56.60;53.20;;;;;;;3.77;100.00;102003.09;4970486;28;20050;-86
2023/11/23 02:11:01;;;;;;;61.53;57.92;;;;;;;3.82;100.00;101975.47;4977667;28;20058;-84
2023/11/23 02:13:30;;;;;;;29.08;27.08;;;;;;;3.71;100.00;101991.31;4977276;28;20055;-77
2023/11/23 02:15:57;;;;;;;26.63;24.83;;;;;;;3.91;100.00;102000.13;4972562;28;20058;-86
2023/11/23 02:18:27;;;;;;;29.98;27.83;;;;;;;3.80;100.00;102002.84;4972619;28;21604;-86
2023/11/23 02:20:54;;;;;;;31.45;28.80;;;;;;;3.66;100.00;102004.84;4961537;28;20069;-86
2023/11/23 02:23:36;;;;;;;30.30;27.75;;;;;;;3.59;100.00;102001.06;4973018;28;20055;-87
2023/11/23 02:26:04;;;;;;;31.67;29.38;;;;;;;3.64;100.00;101992.81;4971301;28;20065;-86
2023/11/23 02:28:33;;;;;;;31.75;29.55;;;;;;;3.67;100.00;101985.50;4964210;28;20054;-86
2023/11/23 02:31:00;;;;;;;31.60;29.40;;;;;;;3.31;100.00;102002.53;4973940;28;20047;-86
2023/11/23 02:33:27;;;;;;;34.53;31.83;;;;;;;3.40;100.00;102001.78;4973146;28;20129;-87
2023/11/23 02:35:54;;;;;;;31.40;29.30;;;;;;;3.76;100.00;101994.41;4973936;28;20130;-85
2023/11/23 02:38:21;;;;;;;32.08;29.52;;;;;;;3.34;100.00;101990.94;4963750;28;20134;-87
2023/11/23 02:40:48;;;;;;;29.75;27.95;;;;;;;3.31;100.00;101988.56;4975604;28;20058;-87
2023/11/23 02:43:17;;;;;;;32.05;30.17;;;;;;;3.58;100.00;102007.28;4972835;28;20059;-86
2023/11/23 02:45:45;;;;;;;28.45;26.80;;;;;;;3.30;100.00;101994.75;4971722;28;20057;-86
2023/11/23 02:48:13;;;;;;;29.73;27.35;;;;;;;3.24;100.00;101979.53;4973185;28;20145;-86
2023/11/23 02:50:45;;;;;;;26.45;24.77;;;;;;;3.10;100.00;101988.56;4984228;28;20051;-87
2023/11/23 02:53:27;;;;;;;27.90;26.10;;;;;;;2.99;100.00;101984.16;4972547;28;20101;-86
2023/11/23 02:55:54;;;;;;;29.38;27.48;;;;;;;3.17;100.00;101992.31;4967436;28;20051;-86
2023/11/23 02:58:23;;;;;;;30.17;27.45;;;;;;;3.17;100.00;101997.56;4977163;28;20042;-86
2023/11/23 03:00:51;;;;;;;28.17;26.58;;;;;;;3.08;100.00;101998.34;4967694;28;20070;-77
2023/11/23 03:03:18;;;;;;;27.60;25.90;;;;;;;3.22;100.00;101996.25;4961672;28;20050;-77
2023/11/23 03:06:10;;;;;;;24.70;23.10;;;;;;;3.24;100.00;101990.88;4971831;28;20452;-77
2023/11/23 03:08:44;;;;;;;26.17;24.57;;;;;;;3.14;100.00;101989.94;4961071;28;20145;-77
2023/11/23 03:11:19;;;;;;;28.33;26.52;;;;;;;3.20;100.00;101986.81;4961589;28;20047;-77
2023/11/23 03:13:57;;;;;;;29.08;26.75;;;;;;;3.20;100.00;101992.91;4969336;28;20050;-77
2023/11/23 03:16:24;;;;;;;26.67;24.75;;;;;;;3.11;100.00;102003.34;4961395;28;20044;-77
2023/11/23 03:18:58;;;;;;;25.30;23.70;;;;;;;3.09;100.00;101979.03;4966117;28;20141;-77
2023/11/23 03:21:25;;;;;;;28.20;26.13;;;;;;;3.15;100.00;101975.88;4971130;28;20092;-77
2023/11/23 03:23:53;;;;;;;30.38;28.45;;;;;;;3.14;100.00;101958.44;4970113;28;20429;-77
2023/11/23 03:26:19;;;;;;;31.20;29.15;;;;;;;3.35;100.00;101967.16;4969807;28;20043;-77
2023/11/23 03:28:46;;;;;;;31.98;30.15;;;;;;;3.31;100.00;101981.53;4969422;28;20054;-77
2023/11/23 03:31:26;;;;;;;30.85;28.85;;;;;;;3.45;100.00;101983.00;4971752;28;20078;-77
2023/11/23 03:33:58;;;;;;;28.35;26.83;;;;;;;3.47;100.00;101969.75;4965015;28;20055;-77
2023/11/23 03:36:25;;;;;;;30.77;28.98;;;;;;;3.20;100.00;101974.53;4972997;28;20460;-77
2023/11/23 03:39:07;;;;;;;27.90;26.30;;;;;;;3.31;100.00;101983.31;4966409;28;20493;-77
2023/11/23 03:41:35;;;;;;;28.45;26.83;;;;;;;3.15;100.00;101971.47;4967631;28;20070;-77
2023/11/23 03:44:02;;;;;;;29.92;27.88;;;;;;;3.25;100.00;101973.31;4972554;28;20050;-77
2023/11/23 03:46:30;;;;;;;28.23;26.45;;;;;;;3.32;100.00;101977.09;4969597;28;20058;-77
2023/11/23 03:49:04;;;;;;;30.23;28.13;;;;;;;3.49;100.00;101973.06;4961732;28;20110;-77
2023/11/23 03:51:31;;;;;;;28.65;26.85;;;;;;;3.41;100.00;101969.28;4966695;28;20062;-77
2023/11/23 03:53:58;;;;;;;30.42;28.42;;;;;;;3.25;100.00;101963.66;4966365;28;20048;-77
2023/11/23 03:56:25;;;;;;;27.58;25.38;;;;;;;3.34;100.00;101970.75;4963651;28;20050;-77
2023/11/23 03:58:52;;;;;;;29.50;27.52;;;;;;;3.43;100.00;101980.50;4970541;28;20050;-76
2023/11/23 04:01:23;;;;;;;28.20;26.48;;;;;;;3.30;100.00;101984.25;4974637;28;20043;-77
2023/11/23 04:03:53;;;;;;;28.05;26.25;;;;;;;3.43;100.00;101998.06;4970236;28;20046;-79
2023/11/23 04:06:20;;;;;;;29.17;27.40;;;;;;;3.38;100.00;101987.09;4971214;28;20045;-77
2023/11/23 04:08:48;;;;;;;24.63;23.23;;;;;;;4.01;100.00;102019.41;4970263;28;20043;-83
2023/11/23 04:11:16;;;;;;;27.52;25.92;;;;;;;4.13;100.00;102015.72;4971432;28;20054;-78
2023/11/23 04:13:43;;;;;;;31.15;29.38;;;;;;;3.41;100.00;102008.69;4965403;28;20512;-77
2023/11/23 04:16:10;;;;;;;31.05;29.05;;;;;;;3.34;100.00;102014.59;4966591;28;20047;-77
2023/11/23 04:18:44;;;;;;;30.58;28.77;;;;;;;3.39;100.00;102013.25;4971491;28;20127;-77
2023/11/23 04:21:12;;;;;;;33.15;31.25;;;;;;;3.27;100.00;102014.25;4968817;28;20058;-77
2023/11/23 04:24:02;;;;;;;29.00;27.40;;;;;;;3.53;100.00;102011.25;4964501;28;20046;-77
2023/11/23 04:26:31;;;;;;;35.90;33.90;;;;;;;3.34;100.00;102017.22;4974810;28;20050;-77
2023/11/23 04:28:58;;;;;;;65.63;61.45;;;;;;;3.27;100.00;102005.53;4972122;28;20084;-77
2023/11/23 04:31:27;;;;;;;68.15;64.50;;;;;;;3.33;100.00;102018.16;4967645;28;20069;-77
2023/11/23 04:33:54;;;;;;;50.90;48.20;;;;;;;3.38;100.00;102029.13;4967632;28;20074;-77
2023/11/23 04:36:22;;;;;;;55.42;52.10;;;;;;;3.37;100.00;102040.59;4971124;28;20046;-77
2023/11/23 04:38:49;;;;;;;45.88;43.28;;;;;;;3.47;100.00;102030.16;4970030;28;20066;-77
2023/11/23 04:41:16;;;;;;;55.33;51.28;;;;;;;3.27;100.00;102034.41;4980906;28;20073;-76
2023/11/23 04:43:43;;;;;;;42.80;40.25;;;;;;;3.56;100.00;102039.91;4967673;28;20077;-76
2023/11/23 04:46:10;;;;;;;37.00;34.95;;;;;;;3.35;100.00;102045.97;4973204;28;20078;-85
2023/11/23 05:26:37;;;;;;;34.42;32.40;;;;;;;3.50;100.00;102085.88;4745032;30;20048;-76
2023/11/23 05:29:06;;;;;;;32.35;30.52;;;;;;;3.44;100.00;102089.84;4771243;29;20055;-76
2023/11/23 05:31:33;;;;;;;36.70;34.50;;;;;;;3.49;100.00;102086.88;4786549;29;20116;-76
2023/11/23 05:34:02;;;;;;;27.92;26.23;;;;;;;3.31;100.00;102086.56;4878227;29;20159;-76
2023/11/23 05:36:29;;;;;;;25.70;24.00;;;;;;;3.40;100.00;102085.00;4909315;29;20245;-76
2023/11/23 05:38:57;;;;;;;37.25;34.45;;;;;;;3.39;100.00;102088.59;4908631;29;20052;-76
2023/11/23 05:41:23;;;;;;;36.30;34.03;;;;;;;3.33;100.00;102083.81;4906141;29;20072;-77
2023/11/23 05:43:51;;;;;;;30.42;28.20;;;;;;;3.32;100.00;102076.91;4908214;29;20164;-77
2023/11/23 05:46:19;;;;;;;27.83;25.98;;;;;;;3.42;100.00;102068.16;4907867;29;20048;-76
2023/11/23 05:48:46;;;;;;;29.05;27.25;;;;;;;3.29;100.00;102067.47;4911471;29;20662;-76
2023/11/23 05:51:13;;;;;;;29.35;27.45;;;;;;;3.19;100.00;102074.44;4910885;29;20044;-76
2023/11/23 05:53:41;;;;;;;29.80;27.85;;;;;;;3.40;100.00;102082.38;4910295;29;20142;-77
2023/11/23 05:56:09;;;;;;;25.33;23.60;;;;;;;3.37;100.00;102087.88;4907641;29;20044;-76
2023/11/23 05:58:36;;;;;;;24.15;22.75;;;;;;;3.31;100.00;102098.88;4910508;29;20139;-77
2023/11/23 06:01:03;;;;;;;27.30;25.60;;;;;;;3.14;100.00;102076.59;4924883;28;20062;-76
2023/11/23 06:03:31;;;;;;;31.30;29.30;;;;;;;2.95;100.00;102072.81;4970379;28;20055;-76
2023/11/23 06:05:58;;;;;;;29.10;27.30;;;;;;;3.11;100.00;102079.47;4972294;28;20488;-77
2023/11/23 06:08:27;;;;;;;29.80;27.88;;;;;;;3.12;100.00;102084.59;4970513;28;20566;-76
2023/11/23 06:10:54;;;;;;;30.38;28.55;;;;;;;3.16;100.00;102095.69;4969787;28;20050;-77
2023/11/23 06:13:21;;;;;;;33.05;30.50;;;;;;;3.31;100.00;102088.38;4971223;28;20061;-76
2023/11/23 06:15:50;;;;;;;30.83;28.77;;;;;;;3.41;100.00;102076.13;4967482;28;20134;-76
2023/11/23 06:18:18;;;;;;;26.70;24.90;;;;;;;3.22;100.00;102058.44;4963620;28;20138;-77
2023/11/23 06:20:46;;;;;;;29.20;27.02;;;;;;;3.29;100.00;102066.63;4968851;28;20699;-76
2023/11/23 06:23:13;;;;;;;24.27;22.77;;;;;;;3.25;100.00;102071.31;4968923;28;20349;-76
2023/11/23 06:25:40;;;;;;;30.05;28.08;;;;;;;3.26;100.00;102072.97;4967015;28;20050;-76
2023/11/23 06:28:07;;;;;;;25.80;24.20;;;;;;;3.23;100.00;102073.22;4969373;28;20050;-77
2023/11/23 06:30:34;;;;;;;28.02;25.85;;;;;;;3.39;100.00;102071.03;4966784;28;20050;-76
2023/11/23 06:33:01;;;;;;;26.33;24.67;;;;;;;3.30;100.00;102086.69;4966142;28;20058;-76
2023/11/23 06:35:28;;;;;;;27.45;25.63;;;;;;;3.18;100.00;102085.91;4965779;28;20078;-76
2023/11/23 06:37:57;;;;;;;25.63;23.92;;;;;;;3.25;100.00;102081.00;4970180;28;20402;-76
2023/11/23 06:40:24;;;;;;;26.48;24.75;;;;;;;3.10;100.00;102076.00;4967539;28;20435;-77
2023/11/23 06:42:51;;;;;;;28.73;26.38;;;;;;;3.09;100.00;102074.34;4964181;28;20051;-76
2023/11/23 06:45:18;;;;;;;25.35;23.83;;;;;;;3.24;100.00;102077.53;4964104;28;20054;-77
2023/11/23 06:47:45;;;;;;;26.10;24.23;;;;;;;3.31;100.00;102076.06;4963994;28;20043;-76
2023/11/23 06:50:12;;;;;;;25.73;24.23;;;;;;;3.26;100.00;102072.16;4974252;28;20050;-85
2023/11/23 06:52:39;;;;;;;27.30;25.60;;;;;;;3.25;100.00;102073.13;4966869;28;20051;-86
2023/11/23 06:55:09;;;;;;;25.70;24.10;;;;;;;3.24;100.00;102077.53;4971349;28;20047;-86
2023/11/23 06:57:39;;;;;;;24.10;22.60;;;;;;;3.42;100.00;102076.03;4970975;28;20113;-87
2023/11/23 07:00:16;;;;;;;25.48;23.95;;;;;;;3.43;100.00;102084.75;4977678;28;20057;-86
2023/11/23 07:02:42;;;;;;;26.70;24.40;;;;;;;3.22;100.00;102090.78;4970200;28;20051;-86
2023/11/23 07:05:11;;;;;;;25.77;23.98;;;;;;;3.23;100.00;102088.97;4972123;28;20053;-86
2023/11/23 07:07:38;;;;;;;24.70;23.10;;;;;;;3.21;100.00;102076.00;4976121;28;20426;-86
2023/11/23 07:10:08;;;;;;;25.55;23.80;;;;;;;3.28;100.00;102064.97;4971004;28;20057;-86
2023/11/23 07:12:35;;;;;;;25.20;23.52;;;;;;;3.38;100.00;102048.34;4969771;28;20440;-86
2023/11/23 07:15:02;;;;;;;24.92;22.88;;;;;;;3.31;100.00;102062.94;4972139;28;20038;-86
2023/11/23 07:17:30;;;;;;;28.77;26.67;;;;;;;3.20;100.00;102069.03;4976104;28;20142;-86
2023/11/23 07:19:57;;;;;;;26.92;24.77;;;;;;;3.42;100.00;102067.31;4970593;28;20053;-86
2023/11/23 07:22:26;;;;;;;27.40;25.08;;;;;;;3.51;100.00;102056.06;4972712;28;20466;-76
2023/11/23 07:24:52;;;;;;;29.90;27.58;;;;;;;3.50;100.00;102049.13;4971181;28;20065;-86
2023/11/23 07:27:21;;;;;;;29.50;27.50;;;;;;;3.53;100.00;102033.09;4976485;28;20047;-86
2023/11/23 07:29:49;;;;;;;26.20;24.50;;;;;;;3.33;100.00;102042.66;4978422;28;20047;-87
2023/11/23 07:32:16;;;;;;;23.98;22.42;;;;;;;3.35;100.00;102047.75;4973501;28;20090;-86
2023/11/23 07:34:43;;;;;;;28.98;26.80;;;;;;;3.55;100.00;102033.00;4970883;28;20106;-86
2023/11/23 07:37:10;;;;;;;27.00;25.30;;;;;;;3.67;100.00;102026.69;4967800;28;20039;-86
2023/11/23 07:39:37;;;;;;;26.55;24.95;;;;;;;3.49;100.00;102036.13;4971630;28;20051;-86
2023/11/23 07:42:05;;;;;;;24.90;23.40;;;;;;;3.72;100.00;102037.63;4971522;28;20053;-86
2023/11/23 07:44:33;;;;;;;25.70;24.10;;;;;;;3.91;100.00;102034.31;4969129;28;20051;-86
2023/11/23 07:47:00;;;;;;;26.02;24.35;;;;;;;3.86;100.00;102028.59;4970662;28;20121;-86
2023/11/23 07:49:27;;;;;;;24.83;23.33;;;;;;;3.83;100.00;102023.59;4975051;28;20050;-85
2023/11/23 07:51:55;;;;;;;26.05;24.35;;;;;;;4.06;100.00;102033.00;4973237;28;20075;-86
2023/11/23 07:54:22;;;;;;;25.85;24.30;;;;;;;3.95;100.00;102030.44;4971169;28;20050;-86
2023/11/23 07:56:51;;;;;;;23.45;21.80;;;;;;;3.95;100.00;102025.19;4964945;28;20046;-86
2023/11/23 07:59:18;;;;;;;26.98;25.38;;;;;;;3.95;100.00;102038.34;4973047;28;20133;-86
2023/11/23 08:01:47;;;;;;;24.67;23.15;;;;;;;4.10;100.00;102033.56;4970350;28;20050;-88
2023/11/23 08:04:14;;;;;;;25.05;23.65;;;;;;;4.05;100.00;102026.06;4972572;28;20051;-86
2023/11/23 08:06:42;;;;;;;27.88;26.13;;;;;;;4.10;100.00;102028.31;4976013;28;20397;-85
2023/11/23 08:09:14;;;;;;;27.33;25.65;;;;;;;4.08;100.00;102028.44;4972783;28;20470;-85
2023/11/23 08:11:45;;;;;;;26.55;24.75;;;;;;;4.21;100.00;102032.66;4970443;28;20047;-86
2023/11/23 08:14:12;;;;;;;28.58;26.98;;;;;;;4.37;100.00;102035.63;4970537;28;20043;-86
2023/11/23 08:16:39;;;;;;;27.90;25.65;;;;;;;4.02;100.00;102015.81;4976406;28;20051;-86
2023/11/23 08:19:08;;;;;;;27.88;26.27;;;;;;;4.17;100.00;102024.19;4975997;28;20051;-86
2023/11/23 08:21:36;;;;;;;26.83;25.23;;;;;;;4.21;100.00;102011.63;4974431;28;20054;-86
2023/11/23 08:24:03;;;;;;;27.58;26.08;;;;;;;4.00;100.00;102001.16;4974201;28;20134;-86
2023/11/23 08:26:31;;;;;;;28.02;26.33;;;;;;;4.25;100.00;102016.47;4974673;28;20132;-86
2023/11/23 08:28:58;;;;;;;29.52;27.13;;;;;;;4.43;100.00;102024.56;4973277;28;20058;-86
2023/11/23 08:31:28;;;;;;;28.30;26.52;;;;;;;4.22;100.00;102024.63;4974497;28;20440;-86
2023/11/23 08:33:56;;;;;;;26.17;24.77;;;;;;;4.42;100.00;102037.84;4972657;28;20109;-86
2023/11/23 08:36:25;;;;;;;29.73;27.48;;;;;;;4.33;100.00;102024.53;4977405;28;20051;-85
2023/11/23 08:38:52;;;;;;;23.75;22.35;;;;;;;4.45;100.00;102027.91;4975162;28;20051;-86
2023/11/23 08:41:24;;;;;;;22.92;21.65;;;;;;;4.50;100.00;102020.44;4974833;28;20054;-86
2023/11/23 08:43:51;;;;;;;27.63;25.67;;;;;;;4.42;100.00;102012.38;4966753;28;20074;-85
2023/11/23 08:46:18;;;;;;;25.77;24.17;;;;;;;4.43;100.00;102005.31;4971952;28;20039;-86
2023/11/23 08:48:45;;;;;;;24.50;23.10;;;;;;;4.41;100.00;102000.19;4974904;28;20046;-86
2023/11/23 08:51:13;;;;;;;28.25;26.67;;;;;;;4.29;100.00;102012.59;4975006;28;20132;-86
2023/11/23 08:53:41;;;;;;;31.98;29.58;;;;;;;4.50;100.00;101993.28;4970635;28;20090;-86
2023/11/23 08:56:08;;;;;;;28.08;26.38;;;;;;;4.40;100.00;102003.78;4967329;28;20129;-86
2023/11/23 08:58:36;;;;;;;28.90;26.90;;;;;;;4.47;100.00;101991.75;4973817;28;20561;-86
2023/11/23 09:01:05;;;;;;;25.70;24.08;;;;;;;4.67;100.00;102003.16;4973740;28;20050;-86
2023/11/23 09:03:32;;;;;;;26.75;25.23;;;;;;;4.55;100.00;101980.56;4974252;28;20050;-86
2023/11/23 09:05:59;;;;;;;26.40;24.80;;;;;;;4.76;100.00;102002.34;4974330;28;20089;-86
2023/11/23 09:08:26;;;;;;;29.20;27.27;;;;;;;4.68;100.00;101989.03;4973876;28;20133;-86
2023/11/23 09:10:55;;;;;;;27.88;26.27;;;;;;;4.85;100.00;101991.97;4975155;28;20055;-87
2023/11/23 09:13:25;;;;;;;26.30;24.80;;;;;;;4.74;100.00;101974.50;4979272;28;20055;-86
2023/11/23 09:15:53;;;;;;;27.20;25.60;;;;;;;4.69;100.00;101961.75;4967866;28;20349;-86
2023/11/23 09:18:21;;;;;;;26.50;24.75;;;;;;;4.88;100.00;101957.47;4974296;28;20039;-86
2023/11/23 09:20:50;;;;;;;26.63;25.17;;;;;;;4.95;100.00;101966.47;4973452;28;20046;-86
2023/11/23 09:23:18;;;;;;;26.77;25.38;;;;;;;4.86;100.00;101959.41;4974001;28;20437;-86
2023/11/23 09:25:45;;;;;;;29.75;27.92;;;;;;;4.58;100.00;101946.09;4972568;28;20059;-86
2023/11/23 09:28:14;;;;;;;30.55;28.77;;;;;;;4.92;100.00;101938.63;4977844;28;20587;-86
2023/11/23 09:30:41;;;;;;;35.70;32.47;;;;;;;4.71;100.00;101937.91;4975368;28;20047;-86
2023/11/23 09:33:09;;;;;;;28.80;27.00;;;;;;;4.59;100.00;101943.31;4973281;28;20522;-86
2023/11/23 09:35:39;;;;;;;27.30;25.70;;;;;;;5.05;100.00;101947.09;4975521;28;20058;-87
2023/11/23 09:38:06;;;;;;;30.33;28.02;;;;;;;4.86;100.00;101939.16;4974238;28;20074;-86
2023/11/23 09:40:34;;;;;;;28.75;27.05;;;;;;;4.74;100.00;101935.84;4979945;28;20497;-86
2023/11/23 09:43:01;;;;;;;31.98;29.80;;;;;;;4.74;100.00;101920.03;4981459;28;20424;-86
2023/11/23 09:45:30;;;;;;;27.58;26.08;;;;;;;5.04;100.00;101911.16;4974243;28;20054;-86
2023/11/23 09:47:57;;;;;;;27.08;25.42;;;;;;;4.99;100.00;101908.16;4975946;28;20479;-87
2023/11/23 09:50:28;;;;;;;27.85;26.25;;;;;;;4.97;100.00;101896.09;4973404;28;20050;-87
2023/11/23 09:52:56;;;;;;;29.38;27.45;;;;;;;5.11;100.00;101897.44;4976680;28;20105;-86
2023/11/23 09:55:25;;;;;;;27.48;25.77;;;;;;;5.07;100.00;101882.91;4969837;28;20527;-77
2023/11/23 09:57:52;;;;;;;30.30;28.40;;;;;;;5.11;100.00;101865.81;4971163;28;20556;-86
2023/11/23 10:00:21;;;;;;;24.67;23.27;;;;;;;4.96;100.00;101876.81;4975875;28;20088;-86
2023/11/23 10:02:55;;;;;;;25.60;24.08;;;;;;;5.15;100.00;101862.78;4974551;28;20504;-87
2023/11/23 10:05:24;;;;;;;28.00;26.30;;;;;;;5.49;100.00;101863.09;4969536;28;20054;-86
2023/11/23 10:07:53;;;;;;;27.75;26.02;;;;;;;5.31;100.00;101841.09;4990935;28;20058;-87
2023/11/23 10:10:21;;;;;;;27.92;26.27;;;;;;;5.46;100.00;101844.09;4978174;28;20047;-87
2023/11/23 10:12:49;;;;;;;30.23;28.42;;;;;;;5.41;100.00;101822.63;4973580;28;20069;-86
2023/11/23 10:15:16;;;;;;;28.63;26.73;;;;;;;5.52;100.00;101822.44;4975454;28;20101;-87
2023/11/23 10:17:46;;;;;;;29.52;27.38;;;;;;;5.46;100.00;101821.22;4973506;28;20126;-86
2023/11/23 10:20:15;;;;;;;29.38;27.40;;;;;;;5.86;100.00;101816.56;4978368;28;20046;-86
2023/11/23 10:22:47;;;;;;;27.67;25.70;;;;;;;5.67;100.00;101815.72;4971827;28;20524;-87
2023/11/23 10:25:24;;;;;;;26.65;24.98;;;;;;;5.84;100.00;101816.72;4972611;28;20315;-87
2023/11/23 10:27:51;;;;;;;28.88;27.17;;;;;;;5.95;100.00;101824.44;4966616;28;20054;-88
2023/11/23 10:30:21;;;;;;;27.65;25.90;;;;;;;5.97;100.00;101824.31;4969538;28;20050;-88
2023/11/23 10:32:48;;;;;;;26.38;24.88;;;;;;;5.87;100.00;101812.94;4971915;28;20492;-87
2023/11/23 10:35:19;;;;;;;27.85;26.15;;;;;;;5.52;100.00;101814.53;4964650;28;20694;-77
2023/11/23 10:37:51;;;;;;;31.02;28.83;;;;;;;5.16;100.00;101818.84;4963470;28;20047;-78
2023/11/23 10:40:21;;;;;;;29.45;27.65;;;;;;;5.13;100.00;101808.59;4966350;28;20055;-77
2023/11/23 10:42:48;;;;;;;31.60;29.42;;;;;;;6.01;100.00;101812.47;4963939;28;20532;-77
2023/11/23 10:45:18;;;;;;;31.45;29.55;;;;;;;6.10;100.00;101803.66;4965107;28;20061;-77
2023/11/23 10:47:47;;;;;;;29.33;27.30;;;;;;;5.53;100.00;101797.75;4965596;28;20089;-77
2023/11/23 10:50:18;;;;;;;29.20;27.20;;;;;;;5.81;100.00;101811.75;4964608;28;20055;-78
2023/11/23 10:52:45;;;;;;;27.67;26.17;;;;;;;5.96;100.00;101797.13;4964909;28;20054;-77
2023/11/23 10:55:12;;;;;;;26.15;24.63;;;;;;;5.74;100.00;101800.94;4964798;28;20507;-78
2023/11/23 10:57:46;;;;;;;29.05;27.20;;;;;;;5.90;100.00;101787.13;4966472;28;20053;-77
2023/11/23 11:00:16;;;;;;;30.98;28.60;;;;;;;6.06;100.00;101791.78;4965306;28;20051;-78
2023/11/23 11:02:45;;;;;;;30.35;28.55;;;;;;;6.12;100.00;101774.53;4967379;28;20054;-77
2023/11/23 11:05:28;;;;;;;27.67;25.85;;;;;;;5.95;100.00;101778.78;4966667;28;20051;-77
2023/11/23 11:08:01;;;;;;;29.35;27.38;;;;;;;5.66;100.00;101800.88;4966034;28;20058;-78
2023/11/23 11:10:29;;;;;;;31.52;29.23;;;;;;;5.77;100.00;101783.19;4964388;28;20055;-77
2023/11/23 11:13:06;;;;;;;31.85;29.75;;;;;;;5.97;100.00;101776.84;4965731;28;20257;-78
2023/11/23 11:15:33;;;;;;;29.38;27.48;;;;;;;6.09;100.00;101764.25;4966123;28;20062;-77
2023/11/23 11:18:06;;;;;;;30.40;28.30;;;;;;;5.93;100.00;101768.41;4966502;28;20043;-77
2023/11/23 11:20:36;;;;;;;28.98;27.08;;;;;;;6.35;100.00;101769.59;4965791;28;20047;-78
2023/11/23 11:23:03;;;;;;;29.20;27.30;;;;;;;8.53;100.00;101763.66;4966874;28;20071;-77
2023/11/23 11:25:43;;;;;;;26.52;24.58;;;;;;;7.57;100.00;101754.44;4967556;28;20101;-80
2023/11/23 11:28:14;;;;;;;28.35;26.65;;;;;;;7.24;100.00;101758.78;4965647;28;20046;-77
2023/11/23 11:30:43;;;;;;;28.02;25.88;;;;;;;6.23;100.00;101758.44;4965280;28;20500;-78
2023/11/23 11:33:11;;;;;;;32.85;30.67;;;;;;;6.38;100.00;101764.84;4966939;28;20330;-78
2023/11/23 11:35:48;;;;;;;31.92;29.98;;;;;;;6.39;100.00;101747.22;4969752;28;20523;-77
2023/11/23 11:38:16;;;;;;;35.92;33.33;;;;;;;6.11;100.00;101743.81;4969421;28;20047;-78
2023/11/23 11:40:45;;;;;;;34.63;31.98;;;;;;;6.62;100.00;101737.78;4972724;28;20073;-78
2023/11/23 11:43:15;;;;;;;33.95;31.88;;;;;;;6.08;100.00;101733.56;4958223;28;20594;-78
2023/11/23 11:45:41;;;;;;;29.58;27.77;;;;;;;6.10;100.00;101729.81;4965272;28;20050;-78
2023/11/23 11:48:09;;;;;;;26.58;25.02;;;;;;;8.02;100.00;101726.75;4967042;28;20487;-77
2023/11/23 11:50:36;;;;;;;26.75;25.15;;;;;;;6.91;100.00;101726.09;4967155;28;20051;-78
2023/11/23 11:53:07;;;;;;;27.75;26.10;;;;;;;6.26;100.00;101726.47;4966162;28;20138;-78
2023/11/23 11:55:33;;;;;;;31.45;29.15;;;;;;;6.25;100.00;101709.00;4966771;28;20062;-78